METAR Data
IDs: Format: Raw Decoded Include TAF

Data at: 1236 UTC 07 Jul 2020

METAR for:KADW (Andrews AFB, MD, US)
Text:KADW 071156Z AUTO 00000KT 10SM OVC017 22/21 A3007 RMK AO2 RAB34E43 SLP188 P0000 60034 70697 T02170208 10217 20197 51019 $
Temperature: 21.7°C ( 71°F)
Dewpoint: 20.8°C ( 69°F) [RH = 95%]
Pressure (altimeter):30.07 inches Hg (1018.4 mb) [Sea level pressure: 1018.8 mb]
Winds:calm
Visibility:10 or more sm (16+ km)
Ceiling:1700 feet AGL
Clouds: overcast cloud deck at 1700 feet AGL
QC Flag:automated observation with no human augmentation; SOME DATA ABOVE MAY BE INACCURATE!!!"$" is an indication the sensor requires maintenance.